sensor_id;sensor_type;location;lat;lon;timestamp;temperature;humidity
67275;DHT22;55463;52.324;5.122;2022-12-18T00:01:18;-2.61;94.69
67275;DHT22;55463;52.324;5.122;2022-12-18T00:03:44;-2.61;94.63
67275;DHT22;55463;52.324;5.122;2022-12-18T00:06:10;-2.60;94.41
67275;DHT22;55463;52.324;5.122;2022-12-18T00:08:35;-2.60;94.27
67275;DHT22;55463;52.324;5.122;2022-12-18T00:11:05;-2.58;93.95
67275;DHT22;55463;52.324;5.122;2022-12-18T00:13:31;-2.57;93.85
67275;DHT22;55463;52.324;5.122;2022-12-18T00:16:02;-2.72;94.20
67275;DHT22;55463;52.324;5.122;2022-12-18T00:18:27;-2.76;94.47
67275;DHT22;55463;52.324;5.122;2022-12-18T00:20:52;-2.89;95.03
67275;DHT22;55463;52.324;5.122;2022-12-18T00:23:18;-2.89;95.07
67275;DHT22;55463;52.324;5.122;2022-12-18T00:25:43;-2.86;95.26
67275;DHT22;55463;52.324;5.122;2022-12-18T00:28:08;-2.88;95.12
67275;DHT22;55463;52.324;5.122;2022-12-18T00:30:34;-2.89;95.42
67275;DHT22;55463;52.324;5.122;2022-12-18T00:32:59;-2.91;95.50
67275;DHT22;55463;52.324;5.122;2022-12-18T00:35:25;-2.96;95.50
67275;DHT22;55463;52.324;5.122;2022-12-18T00:37:50;-2.84;95.48
67275;DHT22;55463;52.324;5.122;2022-12-18T00:40:15;-2.81;95.22
67275;DHT22;55463;52.324;5.122;2022-12-18T00:42:41;-2.74;94.87
67275;DHT22;55463;52.324;5.122;2022-12-18T00:45:24;-2.71;94.69
67275;DHT22;55463;52.324;5.122;2022-12-18T00:47:50;-2.71;94.43
67275;DHT22;55463;52.324;5.122;2022-12-18T00:50:16;-2.69;94.24
67275;DHT22;55463;52.324;5.122;2022-12-18T00:52:41;-2.69;94.30
67275;DHT22;55463;52.324;5.122;2022-12-18T00:55:08;-2.79;94.40
67275;DHT22;55463;52.324;5.122;2022-12-18T00:57:34;-2.82;94.75
67275;DHT22;55463;52.324;5.122;2022-12-18T00:59:59;-2.81;94.85
67275;DHT22;55463;52.324;5.122;2022-12-18T01:02:24;-2.78;94.61
67275;DHT22;55463;52.324;5.122;2022-12-18T01:04:50;-2.75;94.39
67275;DHT22;55463;52.324;5.122;2022-12-18T01:07:15;-2.78;94.36
67275;DHT22;55463;52.324;5.122;2022-12-18T01:09:41;-2.79;94.30
67275;DHT22;55463;52.324;5.122;2022-12-18T01:12:06;-2.72;94.18
67275;DHT22;55463;52.324;5.122;2022-12-18T01:14:31;-2.71;94.11
67275;DHT22;55463;52.324;5.122;2022-12-18T01:16:57;-2.71;93.86
67275;DHT22;55463;52.324;5.122;2022-12-18T01:19:22;-2.79;93.82
67275;DHT22;55463;52.324;5.122;2022-12-18T01:21:48;-2.84;94.01
67275;DHT22;55463;52.324;5.122;2022-12-18T01:24:14;-2.85;94.01
67275;DHT22;55463;52.324;5.122;2022-12-18T01:26:39;-2.84;94.11
67275;DHT22;55463;52.324;5.122;2022-12-18T01:29:05;-2.91;94.30
67275;DHT22;55463;52.324;5.122;2022-12-18T01:31:32;-2.91;94.13
67275;DHT22;55463;52.324;5.122;2022-12-18T01:34:00;-2.89;93.99
67275;DHT22;55463;52.324;5.122;2022-12-18T01:36:32;-2.99;94.03
67275;DHT22;55463;52.324;5.122;2022-12-18T01:39:04;-3.12;94.77
67275;DHT22;55463;52.324;5.122;2022-12-18T01:41:31;-3.16;94.88
67275;DHT22;55463;52.324;5.122;2022-12-18T01:47:43;-3.14;94.54
67275;DHT22;55463;52.324;5.122;2022-12-18T01:52:47;-3.02;93.93
67275;DHT22;55463;52.324;5.122;2022-12-18T01:55:15;-2.95;93.67
67275;DHT22;55463;52.324;5.122;2022-12-18T01:57:41;-2.93;93.44
67275;DHT22;55463;52.324;5.122;2022-12-18T02:00:13;-2.95;93.28
67275;DHT22;55463;52.324;5.122;2022-12-18T02:02:40;-3.04;93.30
67275;DHT22;55463;52.324;5.122;2022-12-18T02:05:06;-3.04;93.78
67275;DHT22;55463;52.324;5.122;2022-12-18T02:07:42;-3.14;93.62
67275;DHT22;55463;52.324;5.122;2022-12-18T02:10:20;-3.24;94.07
67275;DHT22;55463;52.324;5.122;2022-12-18T02:13:14;-3.20;93.78
67275;DHT22;55463;52.324;5.122;2022-12-18T02:15:51;-3.16;93.41
67275;DHT22;55463;52.324;5.122;2022-12-18T02:18:23;-3.14;93.42
67275;DHT22;55463;52.324;5.122;2022-12-18T02:21:08;-3.12;93.64
67275;DHT22;55463;52.324;5.122;2022-12-18T02:26:45;-3.06;93.15
67275;DHT22;55463;52.324;5.122;2022-12-18T02:31:58;-3.13;93.06
67275;DHT22;55463;52.324;5.122;2022-12-18T02:34:27;-3.17;93.20
67275;DHT22;55463;52.324;5.122;2022-12-18T02:36:54;-3.20;93.14
67275;DHT22;55463;52.324;5.122;2022-12-18T02:39:24;-3.26;93.21
67275;DHT22;55463;52.324;5.122;2022-12-18T02:41:50;-3.23;93.18
67275;DHT22;55463;52.324;5.122;2022-12-18T02:44:15;-3.26;92.92
67275;DHT22;55463;52.324;5.122;2022-12-18T02:46:44;-3.24;93.43
67275;DHT22;55463;52.324;5.122;2022-12-18T02:51:53;-3.16;92.77
67275;DHT22;55463;52.324;5.122;2022-12-18T02:57:17;-3.34;93.31
67275;DHT22;55463;52.324;5.122;2022-12-18T02:59:56;-3.41;93.28
67275;DHT22;55463;52.324;5.122;2022-12-18T03:02:29;-3.33;93.40
67275;DHT22;55463;52.324;5.122;2022-12-18T03:05:12;-3.34;93.48
67275;DHT22;55463;52.324;5.122;2022-12-18T03:07:43;-3.27;93.07
67275;DHT22;55463;52.324;5.122;2022-12-18T03:10:13;-3.34;92.63
67275;DHT22;55463;52.324;5.122;2022-12-18T03:12:47;-3.38;92.68
67275;DHT22;55463;52.324;5.122;2022-12-18T03:15:24;-3.55;93.20
67275;DHT22;55463;52.324;5.122;2022-12-18T03:17:57;-3.50;93.72
67275;DHT22;55463;52.324;5.122;2022-12-18T03:20:25;-3.50;93.56
67275;DHT22;55463;52.324;5.122;2022-12-18T03:22:57;-3.50;93.07
67275;DHT22;55463;52.324;5.122;2022-12-18T03:25:25;-3.55;92.99
67275;DHT22;55463;52.324;5.122;2022-12-18T03:27:55;-3.59;92.77
67275;DHT22;55463;52.324;5.122;2022-12-18T03:30:23;-3.58;92.83
67275;DHT22;55463;52.324;5.122;2022-12-18T03:32:56;-3.61;92.55
67275;DHT22;55463;52.324;5.122;2022-12-18T03:35:28;-3.59;92.45
67275;DHT22;55463;52.324;5.122;2022-12-18T03:37:54;-3.64;92.44
67275;DHT22;55463;52.324;5.122;2022-12-18T03:40:27;-3.68;92.13
67275;DHT22;55463;52.324;5.122;2022-12-18T03:43:04;-3.75;91.99
67275;DHT22;55463;52.324;5.122;2022-12-18T03:45:47;-3.83;91.96
67275;DHT22;55463;52.324;5.122;2022-12-18T03:48:21;-3.83;91.82
67275;DHT22;55463;52.324;5.122;2022-12-18T03:50:59;-3.82;92.27
67275;DHT22;55463;52.324;5.122;2022-12-18T03:56:15;-3.89;91.85
67275;DHT22;55463;52.324;5.122;2022-12-18T03:58:42;-3.92;91.90
67275;DHT22;55463;52.324;5.122;2022-12-18T04:01:11;-3.93;91.75
67275;DHT22;55463;52.324;5.122;2022-12-18T04:03:37;-3.99;91.62
67275;DHT22;55463;52.324;5.122;2022-12-18T04:06:04;-4.04;91.99
67275;DHT22;55463;52.324;5.122;2022-12-18T04:08:30;-4.02;91.54
67275;DHT22;55463;52.324;5.122;2022-12-18T04:10:55;-4.00;91.47
67275;DHT22;55463;52.324;5.122;2022-12-18T04:13:27;-4.02;91.14
67275;DHT22;55463;52.324;5.122;2022-12-18T04:15:53;-4.09;91.63
67275;DHT22;55463;52.324;5.122;2022-12-18T04:18:19;-4.09;91.43
67275;DHT22;55463;52.324;5.122;2022-12-18T04:20:44;-4.03;91.30
67275;DHT22;55463;52.324;5.122;2022-12-18T04:23:10;-4.02;90.90
67275;DHT22;55463;52.324;5.122;2022-12-18T04:25:35;-4.02;90.50
67275;DHT22;55463;52.324;5.122;2022-12-18T04:28:00;-4.02;91.11
67275;DHT22;55463;52.324;5.122;2022-12-18T04:30:26;-3.99;90.82
67275;DHT22;55463;52.324;5.122;2022-12-18T04:32:51;-3.97;90.73
67275;DHT22;55463;52.324;5.122;2022-12-18T04:35:16;-3.89;90.83
67275;DHT22;55463;52.324;5.122;2022-12-18T04:37:43;-3.94;90.19
67275;DHT22;55463;52.324;5.122;2022-12-18T04:40:08;-3.92;90.13
67275;DHT22;55463;52.324;5.122;2022-12-18T04:42:34;-3.92;89.80
67275;DHT22;55463;52.324;5.122;2022-12-18T04:44:59;-4.06;89.87
67275;DHT22;55463;52.324;5.122;2022-12-18T04:47:25;-4.07;89.67
67275;DHT22;55463;52.324;5.122;2022-12-18T04:49:50;-4.09;89.37
67275;DHT22;55463;52.324;5.122;2022-12-18T04:52:15;-4.11;89.49
67275;DHT22;55463;52.324;5.122;2022-12-18T04:54:41;-4.15;89.39
67275;DHT22;55463;52.324;5.122;2022-12-18T04:57:06;-4.20;88.96
67275;DHT22;55463;52.324;5.122;2022-12-18T04:59:31;-4.22;89.01
67275;DHT22;55463;52.324;5.122;2022-12-18T05:01:57;-4.27;89.58
67275;DHT22;55463;52.324;5.122;2022-12-18T05:04:22;-4.28;89.95
67275;DHT22;55463;52.324;5.122;2022-12-18T05:06:47;-4.38;90.12
67275;DHT22;55463;52.324;5.122;2022-12-18T05:09:13;-4.30;90.09
67275;DHT22;55463;52.324;5.122;2022-12-18T05:11:38;-4.24;90.06
67275;DHT22;55463;52.324;5.122;2022-12-18T05:14:04;-4.30;89.85
67275;DHT22;55463;52.324;5.122;2022-12-18T05:16:30;-4.28;89.23
67275;DHT22;55463;52.324;5.122;2022-12-18T05:18:55;-4.34;89.56
67275;DHT22;55463;52.324;5.122;2022-12-18T05:21:21;-4.34;89.97
67275;DHT22;55463;52.324;5.122;2022-12-18T05:23:46;-4.37;90.03
67275;DHT22;55463;52.324;5.122;2022-12-18T05:26:16;-4.34;90.15
67275;DHT22;55463;52.324;5.122;2022-12-18T05:28:41;-4.37;90.49
67275;DHT22;55463;52.324;5.122;2022-12-18T05:31:07;-4.31;90.38
67275;DHT22;55463;52.324;5.122;2022-12-18T05:33:33;-4.24;90.34
67275;DHT22;55463;52.324;5.122;2022-12-18T05:36:00;-4.21;89.85
67275;DHT22;55463;52.324;5.122;2022-12-18T05:38:27;-4.28;89.73
67275;DHT22;55463;52.324;5.122;2022-12-18T05:40:53;-4.31;89.64
67275;DHT22;55463;52.324;5.122;2022-12-18T05:43:20;-4.28;90.26
67275;DHT22;55463;52.324;5.122;2022-12-18T05:45:47;-4.20;90.19
67275;DHT22;55463;52.324;5.122;2022-12-18T05:48:13;-4.24;90.01
67275;DHT22;55463;52.324;5.122;2022-12-18T05:50:40;-4.17;90.39
67275;DHT22;55463;52.324;5.122;2022-12-18T05:53:07;-4.21;90.41
67275;DHT22;55463;52.324;5.122;2022-12-18T05:55:33;-4.18;90.21
67275;DHT22;55463;52.324;5.122;2022-12-18T05:57:59;-4.15;89.85
67275;DHT22;55463;52.324;5.122;2022-12-18T06:00:25;-4.17;89.90
67275;DHT22;55463;52.324;5.122;2022-12-18T06:02:50;-4.10;89.30
67275;DHT22;55463;52.324;5.122;2022-12-18T06:05:16;-4.14;89.19
67275;DHT22;55463;52.324;5.122;2022-12-18T06:07:41;-4.21;89.32
67275;DHT22;55463;52.324;5.122;2022-12-18T06:10:06;-4.15;89.63
67275;DHT22;55463;52.324;5.122;2022-12-18T06:12:32;-4.07;89.69
67275;DHT22;55463;52.324;5.122;2022-12-18T06:14:59;-4.10;89.22
67275;DHT22;55463;52.324;5.122;2022-12-18T06:17:28;-4.15;89.17
67275;DHT22;55463;52.324;5.122;2022-12-18T06:19:54;-4.10;89.39
67275;DHT22;55463;52.324;5.122;2022-12-18T06:22:19;-4.15;88.75
67275;DHT22;55463;52.324;5.122;2022-12-18T06:24:47;-4.09;89.03
67275;DHT22;55463;52.324;5.122;2022-12-18T06:27:13;-4.07;88.80
67275;DHT22;55463;52.324;5.122;2022-12-18T06:29:38;-4.09;88.57
67275;DHT22;55463;52.324;5.122;2022-12-18T06:32:04;-4.09;88.25
67275;DHT22;55463;52.324;5.122;2022-12-18T06:34:29;-4.13;88.10
67275;DHT22;55463;52.324;5.122;2022-12-18T06:36:56;-4.15;88.24
67275;DHT22;55463;52.324;5.122;2022-12-18T06:39:21;-4.15;88.80
67275;DHT22;55463;52.324;5.122;2022-12-18T06:41:47;-4.13;88.50
67275;DHT22;55463;52.324;5.122;2022-12-18T06:44:12;-4.03;88.65
67275;DHT22;55463;52.324;5.122;2022-12-18T06:46:38;-4.03;88.23
67275;DHT22;55463;52.324;5.122;2022-12-18T06:49:03;-4.06;87.93
67275;DHT22;55463;52.324;5.122;2022-12-18T06:51:28;-3.94;88.35
67275;DHT22;55463;52.324;5.122;2022-12-18T06:53:54;-3.96;88.06
67275;DHT22;55463;52.324;5.122;2022-12-18T06:56:19;-4.04;88.16
67275;DHT22;55463;52.324;5.122;2022-12-18T06:58:44;-3.99;88.29
67275;DHT22;55463;52.324;5.122;2022-12-18T07:01:11;-3.87;88.67
67275;DHT22;55463;52.324;5.122;2022-12-18T07:03:41;-3.90;88.59
67275;DHT22;55463;52.324;5.122;2022-12-18T07:06:15;-3.85;88.93
67275;DHT22;55463;52.324;5.122;2022-12-18T07:08:41;-3.87;88.55
67275;DHT22;55463;52.324;5.122;2022-12-18T07:11:06;-3.86;88.96
67275;DHT22;55463;52.324;5.122;2022-12-18T07:13:32;-3.83;88.09
67275;DHT22;55463;52.324;5.122;2022-12-18T07:16:24;-3.92;87.75
67275;DHT22;55463;52.324;5.122;2022-12-18T07:18:49;-4.10;87.80
67275;DHT22;55463;52.324;5.122;2022-12-18T07:21:17;-4.18;88.25
67275;DHT22;55463;52.324;5.122;2022-12-18T07:23:43;-4.22;88.45
67275;DHT22;55463;52.324;5.122;2022-12-18T07:26:12;-4.22;88.32
67275;DHT22;55463;52.324;5.122;2022-12-18T07:28:39;-4.22;88.20
67275;DHT22;55463;52.324;5.122;2022-12-18T07:31:06;-4.20;88.36
67275;DHT22;55463;52.324;5.122;2022-12-18T07:33:33;-4.24;88.21
67275;DHT22;55463;52.324;5.122;2022-12-18T07:36:03;-4.21;88.36
67275;DHT22;55463;52.324;5.122;2022-12-18T07:38:29;-4.18;88.16
67275;DHT22;55463;52.324;5.122;2022-12-18T07:43:28;-4.15;88.66
67275;DHT22;55463;52.324;5.122;2022-12-18T07:45:53;-4.09;88.73
67275;DHT22;55463;52.324;5.122;2022-12-18T07:48:19;-4.02;88.73
67275;DHT22;55463;52.324;5.122;2022-12-18T07:50:44;-4.00;88.52
67275;DHT22;55463;52.324;5.122;2022-12-18T07:53:09;-4.07;88.69
67275;DHT22;55463;52.324;5.122;2022-12-18T07:55:35;-4.02;88.79
67275;DHT22;55463;52.324;5.122;2022-12-18T07:58:02;-3.90;88.83
67275;DHT22;55463;52.324;5.122;2022-12-18T08:00:28;-3.86;88.90
67275;DHT22;55463;52.324;5.122;2022-12-18T08:02:53;-3.79;88.74
67275;DHT22;55463;52.324;5.122;2022-12-18T08:05:19;-3.54;88.58
67275;DHT22;55463;52.324;5.122;2022-12-18T08:07:45;-3.02;87.10
67275;DHT22;55463;52.324;5.122;2022-12-18T08:10:11;-2.54;85.85
67275;DHT22;55463;52.324;5.122;2022-12-18T08:12:36;-2.39;84.03
67275;DHT22;55463;52.324;5.122;2022-12-18T08:15:02;-2.33;83.60
67275;DHT22;55463;52.324;5.122;2022-12-18T08:17:27;-2.58;83.59
67275;DHT22;55463;52.324;5.122;2022-12-18T08:19:53;-2.56;83.63
67275;DHT22;55463;52.324;5.122;2022-12-18T08:22:18;-2.56;83.64
67275;DHT22;55463;52.324;5.122;2022-12-18T08:24:43;-2.74;83.53
67275;DHT22;55463;52.324;5.122;2022-12-18T08:27:09;-2.79;84.35
67275;DHT22;55463;52.324;5.122;2022-12-18T08:29:35;-2.95;84.27
67275;DHT22;55463;52.324;5.122;2022-12-18T08:32:00;-2.93;84.32
67275;DHT22;55463;52.324;5.122;2022-12-18T08:34:25;-3.00;84.55
67275;DHT22;55463;52.324;5.122;2022-12-18T08:36:51;-3.03;84.70
67275;DHT22;55463;52.324;5.122;2022-12-18T08:39:16;-2.97;85.06
67275;DHT22;55463;52.324;5.122;2022-12-18T08:41:41;-3.02;85.03
67275;DHT22;55463;52.324;5.122;2022-12-18T08:44:07;-2.96;85.02
67275;DHT22;55463;52.324;5.122;2022-12-18T08:46:51;-2.89;84.51
67275;DHT22;55463;52.324;5.122;2022-12-18T08:49:18;-2.75;84.57
67275;DHT22;55463;52.324;5.122;2022-12-18T08:51:43;-2.58;84.21
67275;DHT22;55463;52.324;5.122;2022-12-18T08:54:11;-2.46;82.94
67275;DHT22;55463;52.324;5.122;2022-12-18T08:56:37;-2.18;82.42
67275;DHT22;55463;52.324;5.122;2022-12-18T08:59:02;-2.13;81.92
67275;DHT22;55463;52.324;5.122;2022-12-18T09:01:29;-1.96;81.68
67275;DHT22;55463;52.324;5.122;2022-12-18T09:03:55;-1.89;82.12
67275;DHT22;55463;52.324;5.122;2022-12-18T09:06:21;-2.02;82.04
67275;DHT22;55463;52.324;5.122;2022-12-18T09:08:47;-2.14;82.43
67275;DHT22;55463;52.324;5.122;2022-12-18T09:11:22;-2.12;82.76
67275;DHT22;55463;52.324;5.122;2022-12-18T09:13:48;-2.13;83.23
67275;DHT22;55463;52.324;5.122;2022-12-18T09:16:13;-2.19;83.05
67275;DHT22;55463;52.324;5.122;2022-12-18T09:18:39;-2.22;82.89
67275;DHT22;55463;52.324;5.122;2022-12-18T09:21:17;-2.25;83.39
67275;DHT22;55463;52.324;5.122;2022-12-18T09:23:43;-2.33;83.32
67275;DHT22;55463;52.324;5.122;2022-12-18T09:26:09;-2.25;83.42
67275;DHT22;55463;52.324;5.122;2022-12-18T09:28:35;-2.32;82.89
67275;DHT22;55463;52.324;5.122;2022-12-18T09:31:05;-2.23;83.62
67275;DHT22;55463;52.324;5.122;2022-12-18T09:33:31;-2.30;83.24
67275;DHT22;55463;52.324;5.122;2022-12-18T09:35:56;-2.19;83.75
67275;DHT22;55463;52.324;5.122;2022-12-18T09:38:22;-2.16;83.39
67275;DHT22;55463;52.324;5.122;2022-12-18T09:40:51;-2.18;83.53
67275;DHT22;55463;52.324;5.122;2022-12-18T09:43:21;-2.12;83.50
67275;DHT22;55463;52.324;5.122;2022-12-18T09:45:52;-2.09;83.40
67275;DHT22;55463;52.324;5.122;2022-12-18T09:48:27;-2.18;82.93
67275;DHT22;55463;52.324;5.122;2022-12-18T09:50:57;-2.18;83.04
67275;DHT22;55463;52.324;5.122;2022-12-18T09:53:27;-2.18;83.67
67275;DHT22;55463;52.324;5.122;2022-12-18T09:55:54;-2.20;83.23
67275;DHT22;55463;52.324;5.122;2022-12-18T09:58:41;-2.30;83.85
67275;DHT22;55463;52.324;5.122;2022-12-18T10:01:11;-2.29;83.94
67275;DHT22;55463;52.324;5.122;2022-12-18T10:03:37;-2.23;83.84
67275;DHT22;55463;52.324;5.122;2022-12-18T10:06:13;-2.29;83.90
67275;DHT22;55463;52.324;5.122;2022-12-18T10:08:51;-2.20;84.02
67275;DHT22;55463;52.324;5.122;2022-12-18T10:14:31;-2.14;84.18
67275;DHT22;55463;52.324;5.122;2022-12-18T10:19:56;-2.18;83.91
67275;DHT22;55463;52.324;5.122;2022-12-18T10:27:41;-2.20;84.35
67275;DHT22;55463;52.324;5.122;2022-12-18T10:30:18;-2.13;84.55
67275;DHT22;55463;52.324;5.122;2022-12-18T10:32:43;-2.13;84.27
67275;DHT22;55463;52.324;5.122;2022-12-18T10:35:22;-2.12;84.28
67275;DHT22;55463;52.324;5.122;2022-12-18T10:38:04;-2.05;84.64
67275;DHT22;55463;52.324;5.122;2022-12-18T10:40:30;-1.92;84.39
67275;DHT22;55463;52.324;5.122;2022-12-18T10:43:10;-1.89;84.46
67275;DHT22;55463;52.324;5.122;2022-12-18T10:45:36;-1.92;84.14
67275;DHT22;55463;52.324;5.122;2022-12-18T10:48:02;-1.85;84.57
67275;DHT22;55463;52.324;5.122;2022-12-18T10:50:31;-1.89;84.13
67275;DHT22;55463;52.324;5.122;2022-12-18T10:52:59;-1.81;84.06
67275;DHT22;55463;52.324;5.122;2022-12-18T10:55:31;-1.78;84.41
67275;DHT22;55463;52.324;5.122;2022-12-18T10:58:21;-1.64;83.96
67275;DHT22;55463;52.324;5.122;2022-12-18T11:06:07;-1.44;83.51
67275;DHT22;55463;52.324;5.122;2022-12-18T11:08:33;-1.40;83.49
67275;DHT22;55463;52.324;5.122;2022-12-18T11:10:58;-1.30;82.95
67275;DHT22;55463;52.324;5.122;2022-12-18T11:13:26;-1.30;83.33
67275;DHT22;55463;52.324;5.122;2022-12-18T11:15:52;-1.29;82.44
67275;DHT22;55463;52.324;5.122;2022-12-18T11:18:19;-1.29;82.34
67275;DHT22;55463;52.324;5.122;2022-12-18T11:20:55;-1.29;82.39
67275;DHT22;55463;52.324;5.122;2022-12-18T11:23:22;-1.29;82.47
67275;DHT22;55463;52.324;5.122;2022-12-18T11:26:00;-1.28;82.48
67275;DHT22;55463;52.324;5.122;2022-12-18T11:28:38;-1.20;82.14
67275;DHT22;55463;52.324;5.122;2022-12-18T11:31:26;-1.09;82.68
67275;DHT22;55463;52.324;5.122;2022-12-18T11:36:37;-0.96;82.08
67275;DHT22;55463;52.324;5.122;2022-12-18T11:39:37;-0.91;81.84
67275;DHT22;55463;52.324;5.122;2022-12-18T11:44:50;-0.83;81.80
67275;DHT22;55463;52.324;5.122;2022-12-18T11:47:38;-0.81;81.70
67275;DHT22;55463;52.324;5.122;2022-12-18T11:50:14;-0.74;81.70
67275;DHT22;55463;52.324;5.122;2022-12-18T11:52:41;-0.74;81.98
67275;DHT22;55463;52.324;5.122;2022-12-18T12:00:27;-0.73;81.30
67275;DHT22;55463;52.324;5.122;2022-12-18T12:03:17;-0.64;81.11
67275;DHT22;55463;52.324;5.122;2022-12-18T12:06:10;-0.60;81.31
67275;DHT22;55463;52.324;5.122;2022-12-18T12:08:48;-0.52;81.19
67275;DHT22;55463;52.324;5.122;2022-12-18T12:11:34;-0.57;80.24
67275;DHT22;55463;52.324;5.122;2022-12-18T12:14:21;-0.56;80.99
67275;DHT22;55463;52.324;5.122;2022-12-18T12:24:58;-0.50;80.76
67275;DHT22;55463;52.324;5.122;2022-12-18T12:38:43;-0.33;80.18
67275;DHT22;55463;52.324;5.122;2022-12-18T12:41:13;-0.36;80.01
67275;DHT22;55463;52.324;5.122;2022-12-18T12:44:02;-0.36;80.18
67275;DHT22;55463;52.324;5.122;2022-12-18T12:46:31;-0.32;80.27
67275;DHT22;55463;52.324;5.122;2022-12-18T12:49:02;-0.33;79.86
67275;DHT22;55463;52.324;5.122;2022-12-18T12:51:35;-0.34;80.27
67275;DHT22;55463;52.324;5.122;2022-12-18T12:54:03;-0.33;80.24
67275;DHT22;55463;52.324;5.122;2022-12-18T12:59:18;-0.26;79.98
67275;DHT22;55463;52.324;5.122;2022-12-18T13:02:08;-0.19;79.67
67275;DHT22;55463;52.324;5.122;2022-12-18T13:04:48;-0.21;79.87
67275;DHT22;55463;52.324;5.122;2022-12-18T13:07:26;-0.21;79.69
67275;DHT22;55463;52.324;5.122;2022-12-18T13:13:07;-0.15;79.51
67275;DHT22;55463;52.324;5.122;2022-12-18T13:15:38;-0.15;79.38
67275;DHT22;55463;52.324;5.122;2022-12-18T13:18:11;-0.12;79.53
67275;DHT22;55463;52.324;5.122;2022-12-18T13:20:40;-0.12;79.21
67275;DHT22;55463;52.324;5.122;2022-12-18T13:23:29;-0.04;79.31
67275;DHT22;55463;52.324;5.122;2022-12-18T13:34:26;0.01;78.97
67275;DHT22;55463;52.324;5.122;2022-12-18T13:36:53;0.07;79.34
67275;DHT22;55463;52.324;5.122;2022-12-18T13:41:51;0.12;78.64
67275;DHT22;55463;52.324;5.122;2022-12-18T13:46:58;0.05;78.57
67275;DHT22;55463;52.324;5.122;2022-12-18T13:49:41;0.02;78.44
67275;DHT22;55463;52.324;5.122;2022-12-18T13:52:23;0.02;78.87
67275;DHT22;55463;52.324;5.122;2022-12-18T13:55:01;0.01;78.57
67275;DHT22;55463;52.324;5.122;2022-12-18T13:59:58;0.03;78.97
67275;DHT22;55463;52.324;5.122;2022-12-18T14:02:26;0.02;78.84
67275;DHT22;55463;52.324;5.122;2022-12-18T14:04:52;0.07;78.99
67275;DHT22;55463;52.324;5.122;2022-12-18T14:07:24;0.06;78.86
67275;DHT22;55463;52.324;5.122;2022-12-18T14:09:52;0.03;78.69
67275;DHT22;55463;52.324;5.122;2022-12-18T14:12:27;0.03;79.37
67275;DHT22;55463;52.324;5.122;2022-12-18T14:15:31;0.15;79.48
67275;DHT22;55463;52.324;5.122;2022-12-18T14:20:34;0.10;78.89
67275;DHT22;55463;52.324;5.122;2022-12-18T14:22:59;0.09;78.31
67275;DHT22;55463;52.324;5.122;2022-12-18T14:25:30;0.13;78.71
67275;DHT22;55463;52.324;5.122;2022-12-18T14:28:22;0.17;78.76
67275;DHT22;55463;52.324;5.122;2022-12-18T14:30:48;0.19;78.77
67275;DHT22;55463;52.324;5.122;2022-12-18T14:33:17;0.17;78.32
67275;DHT22;55463;52.324;5.122;2022-12-18T14:35:57;0.20;78.72
67275;DHT22;55463;52.324;5.122;2022-12-18T14:38:39;0.22;79.10
67275;DHT22;55463;52.324;5.122;2022-12-18T14:41:13;0.20;79.04
67275;DHT22;55463;52.324;5.122;2022-12-18T14:43:40;0.20;78.82
67275;DHT22;55463;52.324;5.122;2022-12-18T14:48:50;0.20;79.01
67275;DHT22;55463;52.324;5.122;2022-12-18T14:51:19;0.24;78.53
67275;DHT22;55463;52.324;5.122;2022-12-18T14:53:48;0.24;78.71
67275;DHT22;55463;52.324;5.122;2022-12-18T14:56:20;0.22;78.42
67275;DHT22;55463;52.324;5.122;2022-12-18T14:59:06;0.23;78.28
67275;DHT22;55463;52.324;5.122;2022-12-18T15:01:39;0.24;78.44
67275;DHT22;55463;52.324;5.122;2022-12-18T15:04:42;0.24;78.27
67275;DHT22;55463;52.324;5.122;2022-12-18T15:07:19;0.26;78.28
67275;DHT22;55463;52.324;5.122;2022-12-18T15:10:11;0.27;77.90
67275;DHT22;55463;52.324;5.122;2022-12-18T15:12:42;0.24;77.64
67275;DHT22;55463;52.324;5.122;2022-12-18T15:17:59;0.26;78.18
67275;DHT22;55463;52.324;5.122;2022-12-18T15:20:25;0.23;78.13
67275;DHT22;55463;52.324;5.122;2022-12-18T15:22:51;0.30;77.87
67275;DHT22;55463;52.324;5.122;2022-12-18T15:25:34;0.30;77.95
67275;DHT22;55463;52.324;5.122;2022-12-18T15:28:02;0.27;77.88
67275;DHT22;55463;52.324;5.122;2022-12-18T15:30:27;0.26;77.62
67275;DHT22;55463;52.324;5.122;2022-12-18T15:33:16;0.37;78.00
67275;DHT22;55463;52.324;5.122;2022-12-18T15:35:42;0.39;77.61
67275;DHT22;55463;52.324;5.122;2022-12-18T15:38:07;0.39;77.69
67275;DHT22;55463;52.324;5.122;2022-12-18T15:40:33;0.36;77.65
67275;DHT22;55463;52.324;5.122;2022-12-18T15:42:58;0.37;78.00
67275;DHT22;55463;52.324;5.122;2022-12-18T15:45:42;0.33;78.02
67275;DHT22;55463;52.324;5.122;2022-12-18T15:48:18;0.33;77.64
67275;DHT22;55463;52.324;5.122;2022-12-18T15:50:45;0.30;77.35
67275;DHT22;55463;52.324;5.122;2022-12-18T15:53:10;0.24;77.33
67275;DHT22;55463;52.324;5.122;2022-12-18T15:55:35;0.29;77.43
67275;DHT22;55463;52.324;5.122;2022-12-18T15:58:19;0.33;77.34
67275;DHT22;55463;52.324;5.122;2022-12-18T16:00:45;0.30;77.11
67275;DHT22;55463;52.324;5.122;2022-12-18T16:03:11;0.29;77.19
67275;DHT22;55463;52.324;5.122;2022-12-18T16:05:36;0.26;76.80
67275;DHT22;55463;52.324;5.122;2022-12-18T16:08:02;0.32;76.89
67275;DHT22;55463;52.324;5.122;2022-12-18T16:10:27;0.32;76.73
67275;DHT22;55463;52.324;5.122;2022-12-18T16:12:53;0.32;76.89
67275;DHT22;55463;52.324;5.122;2022-12-18T16:15:18;0.37;77.08
67275;DHT22;55463;52.324;5.122;2022-12-18T16:17:44;0.44;77.12
67275;DHT22;55463;52.324;5.122;2022-12-18T16:20:15;0.43;76.61
67275;DHT22;55463;52.324;5.122;2022-12-18T16:22:43;0.37;76.15
67275;DHT22;55463;52.324;5.122;2022-12-18T16:25:22;0.46;76.74
67275;DHT22;55463;52.324;5.122;2022-12-18T16:27:48;0.50;76.65
67275;DHT22;55463;52.324;5.122;2022-12-18T16:30:22;0.49;76.49
67275;DHT22;55463;52.324;5.122;2022-12-18T16:32:48;0.44;75.89
67275;DHT22;55463;52.324;5.122;2022-12-18T16:35:15;0.42;76.26
67275;DHT22;55463;52.324;5.122;2022-12-18T16:37:41;0.50;76.02
67275;DHT22;55463;52.324;5.122;2022-12-18T16:40:09;0.53;75.68
67275;DHT22;55463;52.324;5.122;2022-12-18T16:42:36;0.49;76.12
67275;DHT22;55463;52.324;5.122;2022-12-18T16:45:02;0.51;76.18
67275;DHT22;55463;52.324;5.122;2022-12-18T16:47:28;0.49;75.97
67275;DHT22;55463;52.324;5.122;2022-12-18T16:49:53;0.50;76.03
67275;DHT22;55463;52.324;5.122;2022-12-18T16:52:19;0.53;75.91
67275;DHT22;55463;52.324;5.122;2022-12-18T16:54:45;0.53;76.09
67275;DHT22;55463;52.324;5.122;2022-12-18T16:57:13;0.54;75.84
67275;DHT22;55463;52.324;5.122;2022-12-18T16:59:38;0.56;75.91
67275;DHT22;55463;52.324;5.122;2022-12-18T17:02:04;0.56;75.74
67275;DHT22;55463;52.324;5.122;2022-12-18T17:04:29;0.57;75.53
67275;DHT22;55463;52.324;5.122;2022-12-18T17:06:55;0.56;75.58
67275;DHT22;55463;52.324;5.122;2022-12-18T17:09:21;0.56;75.43
67275;DHT22;55463;52.324;5.122;2022-12-18T17:11:49;0.62;76.12
67275;DHT22;55463;52.324;5.122;2022-12-18T17:14:19;0.62;76.01
67275;DHT22;55463;52.324;5.122;2022-12-18T17:16:46;0.62;75.50
67275;DHT22;55463;52.324;5.122;2022-12-18T17:19:12;0.64;75.73
67275;DHT22;55463;52.324;5.122;2022-12-18T17:21:37;0.67;75.85
67275;DHT22;55463;52.324;5.122;2022-12-18T17:24:03;0.71;75.11
67275;DHT22;55463;52.324;5.122;2022-12-18T17:26:28;0.71;75.31
67275;DHT22;55463;52.324;5.122;2022-12-18T17:28:57;0.70;75.37